Enos, SC

8:17 PM EDT on July 21, 2017 (GMT -0400)
Sandy Run | | Change Station

Elev 243 ft 33.84 °N, 81.00 °W | Updated 5 seconds ago

Clear
Clear
82.0 °F
Feels Like 90 °F
N
0.0
Wind Variable Wind from SW
Gusts 0.0 mph

Today
High -- | Low -- °F
--% Chance of Precip.
Yesterday
High -- | Low -- °F
Precip. -- in
Pressure 29.98 in
Visibility 10.0 miles
Clouds Scattered Clouds 6000 ft
Mostly Cloudy 12000 ft
Heat Index 90 °F
Dew Point 77 °F
Humidity 86%
Rainfall 0.00 in
Snow Depth Not available.
6:28 AM 8:32 PM
Waning Crescent, 3% visible
METAR KCAE 212356Z 17005KT 10SM SCT060 BKN120 31/22 A2998 RMK AO2 SLP150 60000 T03060217 10361 20289 53007
Pressure 29.98 in
Visibility 10.0 miles
Clouds Scattered Clouds 6000 ft
Mostly Cloudy 12000 ft
Heat Index 90 °F
Dew Point 77 °F
Humidity 86%
Rainfall 0.00 in
Snow Depth Not available.
6:28 AM 8:32 PM
Waning Crescent, 3% visible
METAR KCAE 212356Z 17005KT 10SM SCT060 BKN120 31/22 A2998 RMK AO2 SLP150 60000 T03060217 10361 20289 53007

Get Severe Weather Alerts

Thanks for signing up!

Be on the lookout for a verification email in your inbox.

You'll start receiving the daily forecast at 6 AM.

×

10-Day Weather Forecast

Almanac

Astronomy

Jul. 21, 2017 Rise Set
Actual Time
Civil Twilight
Nautical Twilight
Astronomical Twilight
Moon
Length of Visible Light
Length of Day
Tomorrow will be .
, % of the Moon is Illuminated

Today's Extremes

State Highs State Lows

Community

WunderPhotos

Category 6

Welcome to Category 6. This is the collective home for Weather Underground's featured writeups by Dr. Jeff Masters (right), Bob Henson (left), Chris Burt, and other regular contributors.

Nearby

Air Quality

  Air Quality AQ Index Pollutant
Not available.

Snow Depth

Station Depth Elevation

Earthquake Activity

City Distance Mag. Time & Date
Minimum magnitude displayed is 2.5.

Coastal Water Temperatures

Place Temperature

Stations

Nearby Weather Stations

Station Location Temp. Windchill Dew Point Humidity Wind Precip. Elev Updated Type
                   

Watches & Warnings

There are currently no watches in effect.